Time;durP1;ratioP1;P1;durP2;ratioP2;P2;SDS_P1;SDS_P2;PMS_P1;PMS_P2;Temp;Humidity;BMP_temperature;BMP_pressure;BME280_temperature;BME280_humidity;BME280_pressure;Samples;Min_cycle;Max_cycle;Signal;HPM_P1;HPM_P2
2022/04/15 00:00:15;;;;;;;3.20;2.60;;;;;;;12.69;75.14;99404.03;5116608;27;41111;-81
2022/04/15 00:02:43;;;;;;;4.23;3.50;;;;;;;12.69;75.14;99415.53;5134938;27;39666;-76
2022/04/15 00:07:56;;;;;;;3.97;2.70;;;;;;;12.61;74.95;99406.31;5116733;27;43330;-81
2022/04/15 00:10:24;;;;;;;3.07;2.60;;;;;;;12.58;74.99;99402.91;5133358;27;43036;-79
2022/04/15 00:12:54;;;;;;;2.60;2.33;;;;;;;12.54;75.40;99411.16;5133843;27;40141;-79
2022/04/15 00:15:22;;;;;;;4.07;2.83;;;;;;;12.52;75.34;99407.72;5116311;27;43396;-77
2022/04/15 00:17:50;;;;;;;3.70;2.50;;;;;;;12.48;75.06;99408.88;5134938;27;43340;-80
2022/04/15 00:20:18;;;;;;;2.70;2.13;;;;;;;12.44;75.06;99416.19;5133132;27;43308;-80
2022/04/15 00:22:46;;;;;;;2.60;1.93;;;;;;;12.41;75.08;99411.03;5116484;27;39786;-84
2022/04/15 00:25:14;;;;;;;2.50;2.27;;;;;;;12.37;74.73;99420.13;5133354;27;42079;-78
2022/04/15 00:27:42;;;;;;;2.20;2.00;;;;;;;12.30;74.98;99416.16;5133489;27;41123;-81
2022/04/15 00:30:12;;;;;;;4.27;2.80;;;;;;;12.30;74.89;99415.31;5137020;27;42085;-76
2022/04/15 00:32:41;;;;;;;3.23;2.33;;;;;;;12.26;75.07;99417.28;5141285;27;39905;-80
2022/04/15 00:35:10;;;;;;;3.70;2.40;;;;;;;12.22;75.43;99411.31;5116457;27;41407;-82
2022/04/15 00:37:38;;;;;;;3.43;3.00;;;;;;;12.29;75.11;99416.25;5133508;27;42778;-80
2022/04/15 00:40:09;;;;;;;4.23;3.17;;;;;;;12.20;74.98;99396.41;5132970;27;42518;-78
2022/04/15 00:42:37;;;;;;;3.47;2.43;;;;;;;12.30;74.56;99413.50;5116379;27;38975;-82
2022/04/15 00:45:09;;;;;;;4.10;2.87;;;;;;;12.29;74.59;99406.47;5114158;27;40737;-80
2022/04/15 00:47:48;;;;;;;3.10;2.40;;;;;;;12.27;74.67;99408.38;5095382;28;41798;-78
2022/04/15 00:50:16;;;;;;;2.63;2.20;;;;;;;12.21;74.71;99411.41;5112178;27;40944;-77
2022/04/15 00:52:48;;;;;;;3.17;2.40;;;;;;;12.17;74.69;99401.91;5112581;28;38918;-75
2022/04/15 00:55:17;;;;;;;2.50;2.13;;;;;;;12.16;74.86;99410.81;5112752;28;40706;-78
2022/04/15 00:57:49;;;;;;;2.20;2.00;;;;;;;12.18;74.36;99420.41;5112473;28;43613;-79
2022/04/15 01:00:18;;;;;;;3.37;1.70;;;;;;;12.18;74.46;99408.94;5095334;28;41178;-79
2022/04/15 01:02:48;;;;;;;2.30;1.63;;;;;;;12.26;74.54;99417.28;5112678;28;40074;-76
2022/04/15 01:05:16;;;;;;;2.03;1.83;;;;;;;12.29;74.47;99421.56;5094806;28;42081;-80
2022/04/15 01:07:49;;;;;;;2.33;1.97;;;;;;;12.29;74.84;99417.09;5095026;28;41917;-81
2022/04/15 01:10:19;;;;;;;2.13;1.93;;;;;;;12.30;74.69;99418.81;5095076;28;41558;-80
2022/04/15 01:12:51;;;;;;;2.80;2.43;;;;;;;12.28;74.63;99420.69;5110091;28;40796;-76
2022/04/15 01:15:21;;;;;;;2.63;2.13;;;;;;;12.24;74.42;99417.38;5112304;28;40721;-79
2022/04/15 01:17:50;;;;;;;2.90;2.30;;;;;;;12.24;74.43;99419.16;5112049;28;43834;-78
2022/04/15 01:20:18;;;;;;;3.20;2.07;;;;;;;12.21;74.71;99422.03;5094674;28;42218;-77
2022/04/15 01:22:48;;;;;;;2.70;1.97;;;;;;;12.20;74.78;99420.31;5112323;28;40907;-79
2022/04/15 01:25:18;;;;;;;2.00;1.80;;;;;;;12.20;74.84;99422.97;5111930;28;43117;-80
2022/04/15 01:27:48;;;;;;;1.97;1.77;;;;;;;12.16;74.45;99413.47;5111758;28;42832;-77
2022/04/15 01:30:18;;;;;;;1.97;1.77;;;;;;;12.04;74.67;99407.09;5111660;28;42592;-78
2022/04/15 01:32:46;;;;;;;2.77;2.27;;;;;;;12.07;74.63;99417.53;5094808;28;39169;-80
2022/04/15 01:35:16;;;;;;;2.03;1.90;;;;;;;12.03;74.80;99431.09;5112429;28;42632;-76
2022/04/15 01:37:44;;;;;;;2.57;2.17;;;;;;;11.99;74.89;99426.91;5111919;28;44462;-82
2022/04/15 01:40:14;;;;;;;3.20;2.60;;;;;;;11.92;74.92;99423.75;5111645;28;43141;-78
2022/04/15 01:42:44;;;;;;;2.23;1.90;;;;;;;11.86;75.22;99430.28;5112018;28;40931;-81
2022/04/15 01:45:13;;;;;;;3.20;2.13;;;;;;;11.78;74.80;99421.91;5094490;28;41000;-80
2022/04/15 01:47:40;;;;;;;2.17;1.97;;;;;;;11.74;75.08;99430.97;5112991;28;43526;-78
2022/04/15 01:50:10;;;;;;;2.07;1.90;;;;;;;11.67;74.97;99428.75;5111422;28;42235;-78
2022/04/15 01:52:39;;;;;;;2.30;2.10;;;;;;;11.61;75.33;99429.13;5111503;28;38449;-78
2022/04/15 01:55:08;;;;;;;2.23;2.03;;;;;;;11.46;75.01;99420.25;5111462;28;41613;-77
2022/04/15 01:57:36;;;;;;;3.67;2.90;;;;;;;11.51;74.92;99445.53;5112496;28;44283;-76
2022/04/15 02:00:06;;;;;;;2.80;2.23;;;;;;;11.46;75.02;99452.06;5111007;28;42478;-81
2022/04/15 02:02:40;;;;;;;1.87;1.40;;;;;;;11.40;75.33;99447.09;5112158;28;41572;-79
2022/04/15 02:05:08;;;;;;;2.80;2.27;;;;;;;11.33;74.98;99433.34;5125371;28;41649;-75
2022/04/15 02:07:36;;;;;;;3.30;2.60;;;;;;;11.31;75.03;99447.63;5127425;28;44272;-75
2022/04/15 02:10:05;;;;;;;2.67;1.90;;;;;;;11.25;75.24;99442.66;5125993;28;42853;-76
2022/04/15 02:12:33;;;;;;;2.17;1.93;;;;;;;11.21;74.78;99441.13;5109034;28;39976;-77
2022/04/15 02:15:01;;;;;;;1.87;1.67;;;;;;;11.15;75.73;99443.16;5126527;28;41971;-77
2022/04/15 02:17:30;;;;;;;2.47;2.27;;;;;;;11.12;75.79;99445.16;5125420;28;44368;-78
2022/04/15 02:19:57;;;;;;;2.50;2.30;;;;;;;11.08;75.95;99447.09;5114450;28;42117;-77
2022/04/15 02:22:26;;;;;;;2.73;2.17;;;;;;;11.04;76.00;99450.84;5114844;28;38935;-81
2022/04/15 02:24:53;;;;;;;3.07;2.20;;;;;;;11.00;75.89;99444.00;5097117;28;42830;-80
2022/04/15 02:27:21;;;;;;;3.10;2.20;;;;;;;10.98;76.30;99445.91;5097487;28;41659;-78
2022/04/15 02:29:49;;;;;;;2.77;2.10;;;;;;;10.94;76.29;99447.00;5114892;28;42274;-79
2022/04/15 02:32:16;;;;;;;3.60;2.60;;;;;;;10.94;76.07;99446.16;5115786;28;40895;-76
2022/04/15 02:34:46;;;;;;;2.33;1.77;;;;;;;10.93;76.33;99447.06;5114166;27;41777;-80
2022/04/15 02:37:14;;;;;;;2.10;1.90;;;;;;;10.83;76.75;99436.13;5116073;27;41870;-80
2022/04/15 02:39:41;;;;;;;2.63;2.37;;;;;;;10.89;76.46;99445.53;5097470;28;42642;-80
2022/04/15 02:42:10;;;;;;;2.60;2.20;;;;;;;10.76;76.75;99432.94;5097414;28;39042;-82
2022/04/15 02:44:38;;;;;;;2.67;2.30;;;;;;;10.84;76.74;99456.38;5114502;28;41799;-80
2022/04/15 02:47:08;;;;;;;3.53;2.30;;;;;;;10.83;76.30;99449.38;5114334;28;43694;-78
2022/04/15 02:49:36;;;;;;;2.43;2.13;;;;;;;10.80;76.51;99446.88;5113852;28;41268;-77
2022/04/15 02:52:06;;;;;;;2.73;2.20;;;;;;;10.70;76.19;99435.94;5096857;28;43432;-77
2022/04/15 02:54:34;;;;;;;2.77;2.50;;;;;;;10.69;76.34;99433.38;5114096;28;41609;-78
2022/04/15 02:57:02;;;;;;;5.77;3.10;;;;;;;10.71;76.58;99453.53;5114414;28;41810;-80
2022/04/15 02:59:29;;;;;;;2.83;2.33;;;;;;;10.66;76.33;99444.97;5115284;28;42280;-76
2022/04/15 03:01:57;;;;;;;2.17;2.00;;;;;;;10.66;76.49;99450.28;5097491;28;39086;-78
2022/04/15 03:04:25;;;;;;;4.43;2.60;;;;;;;10.64;76.56;99440.69;5113951;28;40253;-77
2022/04/15 03:06:53;;;;;;;3.93;2.83;;;;;;;10.61;76.67;99443.53;5114212;28;41803;-76
2022/04/15 03:09:22;;;;;;;3.83;2.77;;;;;;;10.58;76.63;99443.69;5113893;28;42486;-79
2022/04/15 03:11:50;;;;;;;3.77;2.70;;;;;;;10.56;76.26;99440.25;5114109;28;39757;-75
2022/04/15 03:14:18;;;;;;;2.87;2.10;;;;;;;10.54;76.46;99439.47;5096416;28;40291;-78
2022/04/15 03:16:46;;;;;;;2.13;1.90;;;;;;;10.40;76.31;99429.59;5114093;28;43963;-76
2022/04/15 03:19:13;;;;;;;4.43;2.53;;;;;;;10.35;76.16;99424.56;5113394;28;42169;-80
2022/04/15 03:21:41;;;;;;;2.97;2.00;;;;;;;10.47;76.27;99444.25;5097016;28;38950;-80
2022/04/15 03:24:09;;;;;;;3.10;2.23;;;;;;;10.36;76.40;99431.59;5113433;28;41747;-79
2022/04/15 03:26:38;;;;;;;2.63;2.43;;;;;;;10.49;76.14;99447.69;5114216;28;42127;-78
2022/04/15 03:29:05;;;;;;;3.23;2.70;;;;;;;10.51;76.02;99445.78;5117587;28;41514;-82
2022/04/15 03:31:33;;;;;;;2.23;1.97;;;;;;;10.56;76.15;99448.19;5116113;28;40244;-77
2022/04/15 03:34:00;;;;;;;2.80;2.43;;;;;;;10.53;75.88;99435.13;5114851;28;42521;-77
2022/04/15 03:36:28;;;;;;;2.10;1.80;;;;;;;10.64;75.44;99438.03;5113946;28;42779;-77
2022/04/15 03:38:56;;;;;;;2.20;2.00;;;;;;;10.81;75.29;99448.59;5114350;28;42348;-77
2022/04/15 03:41:24;;;;;;;3.47;2.40;;;;;;;10.86;75.41;99446.56;5114831;28;41623;-77
2022/04/15 03:43:53;;;;;;;2.17;1.70;;;;;;;10.95;75.08;99450.50;5114401;28;43015;-76
2022/04/15 03:46:20;;;;;;;2.10;2.00;;;;;;;10.98;75.19;99451.19;5096356;28;41938;-78
2022/04/15 03:48:48;;;;;;;2.10;1.90;;;;;;;11.02;74.86;99454.53;5113494;28;42244;-83
2022/04/15 03:51:15;;;;;;;2.77;1.80;;;;;;;11.00;75.41;99454.59;5114913;28;40942;-80
2022/04/15 03:53:43;;;;;;;2.47;2.27;;;;;;;10.96;75.41;99458.38;5113195;28;40672;-78
2022/04/15 03:56:10;;;;;;;2.93;2.27;;;;;;;10.89;75.92;99459.63;5096338;28;41651;-78
2022/04/15 03:58:38;;;;;;;4.37;2.50;;;;;;;10.82;75.92;99455.63;5112863;28;42038;-79
2022/04/15 04:01:07;;;;;;;2.33;2.13;;;;;;;10.75;76.28;99448.94;5096299;28;38816;-80
2022/04/15 04:03:35;;;;;;;2.40;2.20;;;;;;;10.69;76.25;99452.75;5095773;28;41669;-78
2022/04/15 04:06:03;;;;;;;4.30;2.80;;;;;;;10.63;76.39;99454.91;5096598;28;41718;-76
2022/04/15 04:08:31;;;;;;;2.60;2.40;;;;;;;10.57;76.23;99455.22;5113207;28;41290;-75
2022/04/15 04:10:59;;;;;;;1.77;1.67;;;;;;;10.45;76.40;99446.13;5096160;28;38812;-78
2022/04/15 04:13:26;;;;;;;2.80;1.90;;;;;;;10.34;76.15;99438.75;5095876;28;40983;-76
2022/04/15 04:15:54;;;;;;;4.93;2.23;;;;;;;10.41;76.13;99456.00;5112828;28;41847;-75
2022/04/15 04:18:23;;;;;;;2.37;1.90;;;;;;;10.34;76.32;99459.94;5112584;28;41604;-81
2022/04/15 04:20:51;;;;;;;2.93;1.80;;;;;;;10.30;76.56;99465.44;5095778;28;38371;-76
2022/04/15 04:23:18;;;;;;;2.37;2.10;;;;;;;10.26;76.50;99466.56;5114223;28;41967;-77
2022/04/15 04:25:46;;;;;;;2.93;2.63;;;;;;;10.20;76.41;99475.66;5095341;28;42366;-80
2022/04/15 04:28:14;;;;;;;2.87;2.20;;;;;;;10.15;76.52;99472.34;5114171;27;42160;-76
2022/04/15 04:30:42;;;;;;;2.13;1.80;;;;;;;10.10;76.58;99471.75;5095852;28;39641;-80
2022/04/15 04:33:10;;;;;;;4.30;3.43;;;;;;;10.09;76.54;99475.31;5112577;28;42194;-77
2022/04/15 04:35:39;;;;;;;2.03;1.83;;;;;;;10.08;76.81;99474.47;5112403;28;43723;-77
2022/04/15 04:38:07;;;;;;;2.53;1.97;;;;;;;9.98;76.80;99467.06;5112578;28;41510;-75
2022/04/15 04:40:35;;;;;;;2.73;2.47;;;;;;;10.08;76.64;99492.13;5112711;28;39969;-78
2022/04/15 04:43:03;;;;;;;2.50;2.17;;;;;;;10.07;77.43;99485.13;5129840;27;42720;-79
2022/04/15 04:45:32;;;;;;;3.10;2.40;;;;;;;10.08;77.55;99490.34;5095283;28;42467;-79
2022/04/15 04:48:01;;;;;;;2.70;2.50;;;;;;;10.07;77.55;99490.41;5112526;28;42928;-78
2022/04/15 04:50:30;;;;;;;2.37;2.17;;;;;;;10.11;77.74;99499.91;5095449;28;39054;-76
2022/04/15 04:53:00;;;;;;;2.37;2.17;;;;;;;10.12;78.31;99496.34;5129490;27;42603;-79
2022/04/15 04:55:28;;;;;;;2.33;2.07;;;;;;;10.14;77.83;99502.38;5112449;28;43473;-79
2022/04/15 04:57:55;;;;;;;2.40;2.07;;;;;;;10.15;77.42;99500.59;5095378;28;41166;-79
2022/04/15 05:00:23;;;;;;;2.40;2.03;;;;;;;10.17;78.28;99504.03;5111473;28;38853;-77
2022/04/15 05:02:50;;;;;;;3.57;3.00;;;;;;;10.21;79.89;99505.63;5095155;28;40763;-77
2022/04/15 05:05:18;;;;;;;2.90;2.60;;;;;;;10.25;79.44;99508.06;5112979;28;42724;-79
2022/04/15 05:07:46;;;;;;;4.07;2.40;;;;;;;10.27;79.15;99511.47;5095304;28;42228;-77
2022/04/15 05:10:14;;;;;;;4.40;2.90;;;;;;;10.33;79.02;99513.81;5129253;27;40685;-78
2022/04/15 05:12:42;;;;;;;3.37;2.10;;;;;;;10.38;78.65;99514.44;5113196;28;42791;-80
2022/04/15 05:15:11;;;;;;;3.43;2.23;;;;;;;10.20;79.32;99488.91;5112017;28;42621;-79
2022/04/15 05:17:39;;;;;;;2.67;2.40;;;;;;;10.44;78.62;99507.97;5094719;28;41349;-78
2022/04/15 05:20:08;;;;;;;2.30;2.10;;;;;;;10.55;78.38;99525.94;5093989;28;41571;-82
2022/04/15 05:22:36;;;;;;;1.70;1.60;;;;;;;10.63;78.19;99519.28;5095096;28;42065;-76
2022/04/15 05:25:06;;;;;;;2.97;2.30;;;;;;;10.72;77.77;99528.56;5111726;28;42067;-77
2022/04/15 05:27:35;;;;;;;2.83;2.37;;;;;;;10.84;77.27;99527.94;5112835;28;44663;-79
2022/04/15 05:30:02;;;;;;;2.57;2.37;;;;;;;10.91;77.55;99512.56;5094561;28;38875;-77
2022/04/15 05:32:30;;;;;;;2.50;2.10;;;;;;;11.04;76.82;99519.75;5094891;28;41663;-77
2022/04/15 05:34:58;;;;;;;2.10;1.90;;;;;;;11.24;76.79;99539.06;5110995;28;41933;-79
2022/04/15 05:37:26;;;;;;;2.20;2.00;;;;;;;11.38;76.35;99549.75;5128001;27;43223;-77
2022/04/15 05:39:53;;;;;;;2.40;2.10;;;;;;;11.52;75.82;99552.50;5128760;27;39942;-78
2022/04/15 05:42:21;;;;;;;2.63;2.43;;;;;;;11.34;75.71;99500.50;5112581;28;42006;-80
2022/04/15 05:44:50;;;;;;;2.63;2.30;;;;;;;11.69;75.90;99547.13;5111376;28;42769;-76
2022/04/15 05:47:18;;;;;;;2.43;2.07;;;;;;;11.80;75.67;99555.38;5111532;28;41276;-80
2022/04/15 05:49:45;;;;;;;2.40;2.10;;;;;;;11.86;75.09;99552.38;5112709;28;40945;-81
2022/04/15 05:52:14;;;;;;;3.17;2.13;;;;;;;11.98;75.18;99556.13;5112584;28;42813;-79
2022/04/15 05:54:42;;;;;;;2.63;1.93;;;;;;;11.96;75.12;99542.09;5094270;28;42616;-76
2022/04/15 05:57:09;;;;;;;2.73;2.47;;;;;;;12.19;75.40;99562.00;5111506;28;43187;-78
2022/04/15 05:59:37;;;;;;;3.43;2.43;;;;;;;12.27;75.14;99557.09;5111205;28;40998;-77
2022/04/15 06:02:07;;;;;;;3.10;2.77;;;;;;;12.41;74.96;99553.63;5128666;27;42582;-74
2022/04/15 06:04:35;;;;;;;2.50;2.10;;;;;;;12.69;73.96;99558.16;5111446;28;44281;-80
2022/04/15 06:07:03;;;;;;;3.43;2.63;;;;;;;13.16;73.05;99558.81;5128402;27;42413;-79
2022/04/15 06:09:31;;;;;;;3.00;2.17;;;;;;;13.55;71.73;99567.91;5112426;28;41772;-79
2022/04/15 06:11:58;;;;;;;3.70;2.87;;;;;;;13.66;71.55;99576.06;5111594;28;40714;-78
2022/04/15 06:14:30;;;;;;;3.63;3.13;;;;;;;13.70;72.36;99569.63;5110963;28;43069;-77
2022/04/15 06:16:58;;;;;;;2.60;2.40;;;;;;;13.74;72.18;99575.56;5111660;28;42280;-77
2022/04/15 06:19:27;;;;;;;3.33;2.60;;;;;;;13.87;72.30;99582.69;5128461;27;39873;-80
2022/04/15 06:21:54;;;;;;;3.13;2.83;;;;;;;14.08;72.21;99584.94;5110276;27;40813;-79
2022/04/15 06:24:22;;;;;;;3.03;2.43;;;;;;;14.35;71.51;99578.63;5132956;27;43860;-79
2022/04/15 06:26:51;;;;;;;5.20;3.10;;;;;;;14.76;70.50;99587.50;5115220;27;41477;-78
2022/04/15 06:29:18;;;;;;;4.70;3.10;;;;;;;15.07;69.76;99592.44;5131258;27;39046;-77
2022/04/15 06:31:47;;;;;;;5.33;3.43;;;;;;;15.13;69.82;99573.34;5131872;27;41755;-77
2022/04/15 06:34:14;;;;;;;3.70;3.37;;;;;;;15.23;69.66;99585.06;5114172;27;44277;-79
2022/04/15 06:36:43;;;;;;;3.10;2.80;;;;;;;15.29;69.90;99587.31;5132850;27;42126;-79
2022/04/15 06:39:11;;;;;;;3.70;3.33;;;;;;;15.34;69.45;99585.16;5131526;27;39927;-81
2022/04/15 06:41:39;;;;;;;3.90;3.60;;;;;;;15.41;69.45;99588.28;5131905;27;41991;-77
2022/04/15 06:44:06;;;;;;;4.37;3.43;;;;;;;15.49;69.20;99593.06;5132279;27;42503;-79
2022/04/15 06:46:34;;;;;;;3.47;3.17;;;;;;;15.56;68.63;99589.03;5131719;27;42448;-78
2022/04/15 06:49:02;;;;;;;5.60;3.23;;;;;;;15.70;68.47;99586.25;5116590;27;40245;-81
2022/04/15 06:51:30;;;;;;;4.03;3.37;;;;;;;15.94;67.23;99595.16;5136117;27;41703;-77
2022/04/15 06:54:00;;;;;;;4.67;3.87;;;;;;;16.25;66.25;99604.44;5117345;27;41617;-81
2022/04/15 06:56:27;;;;;;;4.60;3.97;;;;;;;16.35;65.06;99615.28;5134674;27;42515;-79
2022/04/15 06:58:55;;;;;;;4.17;3.73;;;;;;;16.36;65.04;99606.28;5117581;27;40471;-75
2022/04/15 07:01:23;;;;;;;4.53;4.00;;;;;;;16.46;65.00;99612.66;5135948;27;41700;-80
2022/04/15 07:03:51;;;;;;;5.57;3.70;;;;;;;16.58;64.85;99617.09;5117496;27;41365;-76
2022/04/15 07:06:19;;;;;;;5.53;3.53;;;;;;;16.83;64.60;99616.97;5101551;28;41692;-81
2022/04/15 07:08:46;;;;;;;4.70;3.87;;;;;;;17.21;63.36;99616.72;5097093;28;39406;-81
2022/04/15 07:11:16;;;;;;;4.67;4.00;;;;;;;17.55;62.39;99598.00;5114466;28;42618;-80
2022/04/15 07:13:43;;;;;;;5.47;4.63;;;;;;;18.07;60.84;99626.00;5114599;28;42725;-76
2022/04/15 07:16:11;;;;;;;4.43;4.03;;;;;;;18.39;58.92;99639.47;5114126;28;42078;-81
2022/04/15 07:18:39;;;;;;;5.93;4.70;;;;;;;18.78;57.94;99628.16;5113433;28;40705;-79
2022/04/15 07:21:07;;;;;;;4.93;4.43;;;;;;;19.08;56.80;99639.94;5111717;28;41836;-78
2022/04/15 07:23:34;;;;;;;4.57;4.13;;;;;;;19.18;57.08;99640.84;5096510;28;42026;-76
2022/04/15 07:26:02;;;;;;;6.13;4.77;;;;;;;19.37;56.93;99627.56;5113830;28;41216;-80
2022/04/15 07:28:31;;;;;;;5.80;4.47;;;;;;;19.83;55.51;99632.47;5114018;28;39855;-78
2022/04/15 07:30:58;;;;;;;6.50;5.00;;;;;;;20.47;53.44;99652.78;5113858;28;42106;-78
2022/04/15 07:33:27;;;;;;;5.50;4.40;;;;;;;21.06;51.97;99661.59;5096673;28;41760;-78
2022/04/15 07:35:55;;;;;;;4.80;4.37;;;;;;;21.55;50.80;99666.94;5113670;28;41508;-79
2022/04/15 07:38:22;;;;;;;5.80;4.10;;;;;;;22.03;49.58;99664.09;5096327;28;39907;-82
2022/04/15 07:40:50;;;;;;;4.73;4.27;;;;;;;22.53;48.81;99665.38;5115045;28;41583;-80
2022/04/15 07:43:18;;;;;;;5.30;4.73;;;;;;;23.05;47.37;99671.00;5113565;28;43831;-81
2022/04/15 07:45:47;;;;;;;4.80;4.30;;;;;;;23.28;46.87;99672.19;5096544;28;43130;-78
2022/04/15 07:48:15;;;;;;;6.00;4.60;;;;;;;23.18;46.26;99684.97;5096609;28;40202;-78
2022/04/15 07:50:42;;;;;;;4.40;4.00;;;;;;;23.26;46.10;99685.00;5113584;28;41605;-81
2022/04/15 07:53:10;;;;;;;4.47;3.87;;;;;;;23.36;45.45;99684.94;5113684;28;43567;-80
2022/04/15 07:55:37;;;;;;;4.40;4.00;;;;;;;23.44;45.40;99687.69;5113174;28;42243;-78
2022/04/15 07:58:05;;;;;;;5.13;3.40;;;;;;;23.51;46.12;99675.28;5113235;28;41042;-79
2022/04/15 08:00:34;;;;;;;4.80;3.60;;;;;;;23.86;45.05;99684.31;5113556;27;42646;-81
2022/04/15 08:03:03;;;;;;;4.17;3.77;;;;;;;24.42;43.15;99694.56;5096261;28;41644;-81
2022/04/15 08:05:31;;;;;;;4.03;3.63;;;;;;;25.13;40.80;99704.91;5113384;28;41256;-80
2022/04/15 08:07:58;;;;;;;6.00;4.20;;;;;;;26.38;39.35;99712.56;5113038;28;39754;-81
2022/04/15 08:10:26;;;;;;;4.67;4.27;;;;;;;27.35;38.09;99717.44;5112948;28;41306;-79
2022/04/15 08:12:54;;;;;;;4.17;3.60;;;;;;;27.90;36.65;99727.19;5114334;28;43513;-82
2022/04/15 08:15:22;;;;;;;3.77;3.33;;;;;;;28.13;35.29;99736.13;5112609;28;42925;-80
2022/04/15 08:17:49;;;;;;;3.77;3.40;;;;;;;28.28;34.69;99730.72;5114456;28;40096;-80
2022/04/15 08:20:18;;;;;;;3.23;2.63;;;;;;;29.02;34.62;99734.19;5112255;28;41773;-81
2022/04/15 08:22:46;;;;;;;2.60;2.40;;;;;;;30.33;32.50;99745.41;5114150;28;43832;-79
2022/04/15 08:25:14;;;;;;;3.17;2.87;;;;;;;31.36;30.53;99747.13;5115086;27;41905;-85
2022/04/15 08:27:42;;;;;;;3.43;3.13;;;;;;;32.11;29.55;99745.03;5116301;27;38560;-79
2022/04/15 08:30:10;;;;;;;4.73;3.60;;;;;;;32.66;28.34;99748.28;5132869;27;40885;-82
2022/04/15 08:32:37;;;;;;;3.78;3.47;;;;;;;33.41;26.53;99765.88;5133405;27;42588;-78
2022/04/15 08:35:07;;;;;;;3.40;3.10;;;;;;;33.81;26.42;99770.06;5132529;27;42616;-74
2022/04/15 08:37:36;;;;;;;3.35;2.97;;;;;;;34.63;25.04;99770.75;5133140;27;40127;-78
2022/04/15 08:40:04;;;;;;;3.08;2.88;;;;;;;35.03;24.50;99762.84;5115741;27;40484;-76
2022/04/15 08:42:33;;;;;;;3.38;3.08;;;;;;;34.86;24.21;99772.84;5132925;27;41536;-80
2022/04/15 08:45:02;;;;;;;3.42;3.13;;;;;;;34.90;23.68;99768.53;5133937;27;41850;-77
2022/04/15 08:47:31;;;;;;;4.30;4.00;;;;;;;35.18;22.49;99776.22;5133008;27;40737;-76
2022/04/15 08:50:00;;;;;;;3.90;3.45;;;;;;;35.58;22.19;99779.25;5115317;27;40940;-77
2022/04/15 08:52:29;;;;;;;3.03;2.75;;;;;;;35.67;22.46;99775.06;5132786;27;41726;-74
2022/04/15 08:54:58;;;;;;;3.67;3.38;;;;;;;35.83;22.77;99776.34;5133941;27;42111;-77
2022/04/15 08:57:26;;;;;;;3.70;3.40;;;;;;;36.08;22.04;99776.97;5134264;27;39924;-78
2022/04/15 08:59:54;;;;;;;3.70;3.40;;;;;;;36.30;21.51;99775.31;5132610;27;40906;-80
2022/04/15 09:02:30;;;;;;;4.13;3.75;;;;;;;36.65;20.84;99778.03;5132983;27;42632;-75
2022/04/15 09:04:58;;;;;;;3.78;3.47;;;;;;;37.29;19.75;99789.88;5116533;27;42523;-79
2022/04/15 09:07:28;;;;;;;3.35;3.05;;;;;;;37.36;20.26;99787.78;5112431;28;40867;-77
2022/04/15 09:09:59;;;;;;;4.30;3.65;;;;;;;36.83;19.93;99784.50;5111445;28;41917;-81
2022/04/15 09:12:28;;;;;;;3.50;3.20;;;;;;;35.82;20.92;99783.78;5113329;27;43406;-79
2022/04/15 09:14:59;;;;;;;3.80;3.50;;;;;;;35.01;21.61;99770.50;5111884;28;42323;-78
2022/04/15 09:17:28;;;;;;;2.90;2.60;;;;;;;34.54;22.29;99770.22;5095286;28;38699;-78
2022/04/15 09:19:58;;;;;;;4.10;3.70;;;;;;;33.64;23.71;99757.91;5111283;28;41797;-79
2022/04/15 09:22:26;;;;;;;4.00;3.07;;;;;;;32.77;24.21;99753.97;5112898;28;43909;-79
2022/04/15 09:24:54;;;;;;;3.13;2.93;;;;;;;31.94;24.70;99743.78;5094771;28;41289;-80
2022/04/15 09:27:24;;;;;;;2.47;2.27;;;;;;;31.66;25.36;99742.09;5112022;28;42028;-77
2022/04/15 09:29:54;;;;;;;2.30;2.10;;;;;;;31.59;25.15;99735.75;5111716;28;42864;-82
2022/04/15 09:32:24;;;;;;;2.27;2.13;;;;;;;31.99;24.56;99739.38;5111727;28;41997;-77
2022/04/15 09:34:55;;;;;;;2.53;2.33;;;;;;;32.57;23.52;99744.09;5112645;28;42299;-80
2022/04/15 09:37:24;;;;;;;2.10;1.80;;;;;;;32.63;22.72;99746.84;5111967;28;40027;-78
2022/04/15 09:40:12;;;;;;;2.57;2.10;;;;;;;31.93;23.38;99753.06;5094443;28;41902;-77
2022/04/15 09:42:47;;;;;;;2.20;2.00;;;;;;;31.85;23.58;99750.53;5094565;28;41678;-80
2022/04/15 09:45:17;;;;;;;1.40;1.27;;;;;;;32.70;23.04;99744.06;5111881;28;41530;-78
2022/04/15 09:47:52;;;;;;;1.87;1.30;;;;;;;33.23;21.67;99761.13;5108955;28;39712;-76
2022/04/15 09:50:26;;;;;;;2.50;1.47;;;;;;;33.23;21.88;99750.16;5094188;28;42490;-81
2022/04/15 09:52:54;;;;;;;1.60;1.50;;;;;;;33.26;21.94;99757.16;5109932;28;42412;-80
2022/04/15 09:55:24;;;;;;;2.07;1.50;;;;;;;32.82;22.55;99754.16;5112399;28;42370;-77
2022/04/15 09:57:53;;;;;;;1.87;1.60;;;;;;;32.07;23.65;99710.88;5111576;28;40303;-78
2022/04/15 10:00:21;;;;;;;1.50;1.40;;;;;;;31.77;23.54;99722.28;5111430;28;42341;-77
2022/04/15 10:02:50;;;;;;;1.67;1.37;;;;;;;31.73;23.27;99747.59;5112504;28;42682;-81
2022/04/15 10:05:20;;;;;;;1.80;1.53;;;;;;;31.24;24.17;99745.22;5094119;28;42157;-76
2022/04/15 10:07:50;;;;;;;3.17;2.10;;;;;;;30.15;24.57;99733.34;5111801;28;38670;-81
2022/04/15 10:10:18;;;;;;;1.07;1.00;;;;;;;29.25;25.97;99734.00;5093850;28;41503;-82
2022/04/15 10:12:47;;;;;;;1.43;1.30;;;;;;;29.02;27.10;99719.69;5094285;28;41331;-78
2022/04/15 10:15:18;;;;;;;2.23;1.60;;;;;;;30.23;25.13;99733.16;5111689;28;42139;-79
2022/04/15 10:17:46;;;;;;;2.37;1.23;;;;;;;31.24;25.34;99726.88;5109516;28;40830;-78
2022/04/15 10:20:14;;;;;;;2.57;1.30;;;;;;;31.77;23.42;99738.72;5110597;28;41371;-76
2022/04/15 10:22:42;;;;;;;0.80;0.80;;;;;;;32.66;22.74;99726.34;5094887;28;41720;-78
2022/04/15 10:25:10;;;;;;;1.43;1.10;;;;;;;34.38;21.98;99740.56;5117855;27;42355;-77
2022/04/15 10:27:38;;;;;;;1.17;1.07;;;;;;;36.27;20.20;99752.88;5114859;28;39012;-76
2022/04/15 10:30:19;;;;;;;1.13;1.00;;;;;;;37.39;18.07;99754.13;5116199;28;41886;-76
2022/04/15 10:32:52;;;;;;;1.00;1.00;;;;;;;35.86;19.00;99751.88;5111962;28;43960;-80
2022/04/15 10:35:21;;;;;;;1.20;1.00;;;;;;;34.04;20.64;99747.44;5114550;28;41432;-80
2022/04/15 10:37:55;;;;;;;1.03;1.03;;;;;;;34.27;20.46;99734.97;5097759;28;39349;-79
2022/04/15 10:40:24;;;;;;;0.80;0.80;;;;;;;34.80;19.70;99748.97;5115148;28;41736;-78
2022/04/15 10:42:52;;;;;;;1.33;0.90;;;;;;;33.42;20.43;99731.88;5131511;27;43761;-82
2022/04/15 10:45:29;;;;;;;0.87;0.87;;;;;;;33.60;20.67;99742.94;5114510;28;41318;-81
2022/04/15 10:48:00;;;;;;;0.80;0.80;;;;;;;35.44;19.88;99736.44;5112004;28;40126;-78
2022/04/15 10:50:29;;;;;;;0.83;0.80;;;;;;;35.74;19.47;99742.75;5114249;28;42495;-75
2022/04/15 10:53:29;;;;;;;1.63;1.00;;;;;;;35.16;20.12;99737.88;5115829;28;42737;-79
2022/04/15 10:56:07;;;;;;;2.13;1.20;;;;;;;33.39;20.71;99733.16;5111665;28;42546;-79
2022/04/15 11:01:13;;;;;;;0.80;0.80;;;;;;;32.46;22.26;99716.28;5097580;28;39210;-78
2022/04/15 11:01:50;;;;;;;1.50;0.90;;;;;;;33.18;22.22;99726.09;5099211;28;40623;-77
2022/04/15 11:04:24;;;;;;;0.77;0.50;;;;;;;33.65;20.02;99737.59;5129495;27;43036;-78
2022/04/15 11:06:53;;;;;;;1.23;0.80;;;;;;;33.71;21.18;99673.53;5114169;28;41481;-78
2022/04/15 11:09:23;;;;;;;1.27;0.70;;;;;;;34.41;20.92;99715.34;5114322;28;40937;-79
2022/04/15 11:11:53;;;;;;;1.17;0.70;;;;;;;33.94;20.09;99725.13;5118531;28;41700;-83
2022/04/15 11:14:33;;;;;;;0.63;0.63;;;;;;;33.98;19.78;99736.53;5105992;28;43048;-76
2022/04/15 11:17:02;;;;;;;0.93;0.63;;;;;;;34.93;19.21;99735.03;5121231;28;42335;-79
2022/04/15 11:19:31;;;;;;;0.60;0.60;;;;;;;35.44;19.34;99728.19;5123468;28;39304;-78
2022/04/15 11:22:01;;;;;;;0.90;0.60;;;;;;;35.62;17.94;99739.09;5124230;28;41907;-78
2022/04/15 11:24:32;;;;;;;0.77;0.60;;;;;;;35.98;18.39;99736.16;5106186;28;44006;-77
2022/04/15 11:27:03;;;;;;;0.57;0.50;;;;;;;36.41;17.98;99731.38;5117319;28;43239;-79
2022/04/15 11:29:32;;;;;;;0.60;0.60;;;;;;;36.49;17.93;99734.59;5097980;28;39942;-77
2022/04/15 11:32:00;;;;;;;0.53;0.53;;;;;;;35.93;18.25;99736.06;5096890;28;41922;-79
2022/04/15 11:34:29;;;;;;;0.83;0.50;;;;;;;34.72;18.19;99741.84;5095774;28;43146;-82
2022/04/15 11:37:02;;;;;;;0.73;0.70;;;;;;;33.66;19.94;99725.56;5114577;28;42247;-81
2022/04/15 11:39:35;;;;;;;0.70;0.70;;;;;;;34.27;20.54;99721.22;5097038;28;38960;-82
2022/04/15 11:42:08;;;;;;;1.17;0.80;;;;;;;36.40;17.52;99729.69;5113689;28;42097;-79
2022/04/15 11:44:36;;;;;;;0.50;0.50;;;;;;;35.99;17.55;99731.50;5113079;28;42510;-82